Terminal Aerodrome Forecast
Issued by NWS Jackson, KY

Home | Current Version | Previous Version | Text Only | Print | Product List | Glossary On
Versions: 1 2 3 4 5 6 7 8 9 10 11 12 13 14 15 16 17 18 19 20
317
FTUS43 KJKL 241454 AAD
TAFLOZ
TAF AMD
KLOZ 241454Z 2415/2512 VRB05KT 3SM -SHRA BR VCTS BKN005CB OVC025
      TEMPO 2415/2417 VRB15KT 1SM TSRA BR BKN008CB
     FM241700 15004KT 3SM SHRA VCTS SCT010 OVC025CB
     FM250000 24007KT P6SM VCSH BKN030=

USA.gov is the U.S. government's official web portal to all federal, state and local government web resources and services.